Time;durP1;ratioP1;P1;durP2;ratioP2;P2;SDS_P1;SDS_P2;PMS_P1;PMS_P2;Temp;Humidity;BMP_temperature;BMP_pressure;BME280_temperature;BME280_humidity;BME280_pressure;Samples;Min_cycle;Max_cycle;Signal;HPM_P1;HPM_P2
2022/10/06 00:02:18;;;;;;;2.90;1.10;;;;;;;;;;4920622;29;20036;-87
2022/10/06 00:04:44;;;;;;;0.98;0.90;;;;;;;;;;4921978;29;20032;-86
2022/10/06 00:07:09;;;;;;;3.00;1.20;;;;;;;;;;4923332;29;20130;-88
2022/10/06 00:09:35;;;;;;;2.30;1.08;;;;;;;;;;4924769;29;20134;-88
2022/10/06 00:12:00;;;;;;;2.83;1.30;;;;;;;;;;4923834;29;20043;-87
2022/10/06 00:14:26;;;;;;;1.42;1.10;;;;;;;;;;4924917;29;20478;-88
2022/10/06 00:16:52;;;;;;;2.47;1.13;;;;;;;;;;4925668;29;20072;-87
2022/10/06 00:19:17;;;;;;;5.13;1.30;;;;;;;;;;4925651;29;20123;-88
2022/10/06 00:21:43;;;;;;;5.40;1.33;;;;;;;;;;4925670;29;20044;-89
2022/10/06 00:24:08;;;;;;;2.35;1.40;;;;;;;;;;4925393;29;20036;-88
2022/10/06 00:26:34;;;;;;;1.60;1.30;;;;;;;;;;4925064;29;20044;-87
2022/10/06 00:29:00;;;;;;;5.53;1.20;;;;;;;;;;4924525;29;20044;-87
2022/10/06 00:31:26;;;;;;;1.33;1.10;;;;;;;;;;4924621;29;20036;-88
2022/10/06 00:33:51;;;;;;;3.78;1.20;;;;;;;;;;4925634;29;20043;-88
2022/10/06 00:36:17;;;;;;;2.20;1.38;;;;;;;;;;4908017;29;20067;-88
2022/10/06 00:38:43;;;;;;;2.72;1.20;;;;;;;;;;4908219;29;20039;-87
2022/10/06 00:41:12;;;;;;;1.98;1.15;;;;;;;;;;4923518;29;20028;-88
2022/10/06 00:43:55;;;;;;;4.00;1.20;;;;;;;;;;4923349;29;20090;-88
2022/10/06 00:46:46;;;;;;;2.67;1.50;;;;;;;;;;4907780;29;20370;-88
2022/10/06 00:49:22;;;;;;;8.38;1.58;;;;;;;;;;4923210;29;20040;-87
2022/10/06 00:51:53;;;;;;;8.43;2.30;;;;;;;;;;4924221;29;20039;-87
2022/10/06 00:54:20;;;;;;;3.65;1.70;;;;;;;;;;4922785;29;20056;-88
2022/10/06 00:56:46;;;;;;;2.88;1.60;;;;;;;;;;4922979;29;20063;-87
2022/10/06 00:59:16;;;;;;;3.17;1.48;;;;;;;;;;4923980;29;20024;-87
2022/10/06 01:02:10;;;;;;;4.07;1.23;;;;;;;;;;4923295;29;20043;-87
2022/10/06 01:04:39;;;;;;;2.17;1.20;;;;;;;;;;4923943;29;20052;-88
2022/10/06 01:07:05;;;;;;;2.03;1.40;;;;;;;;;;4925156;29;20292;-87
2022/10/06 01:09:31;;;;;;;1.55;1.17;;;;;;;;;;4923855;29;20083;-88
2022/10/06 01:12:01;;;;;;;3.20;1.20;;;;;;;;;;4905932;29;20036;-88
2022/10/06 01:14:28;;;;;;;2.50;1.20;;;;;;;;;;4923007;29;20083;-88
2022/10/06 01:17:06;;;;;;;3.88;1.27;;;;;;;;;;4922533;29;20115;-87
2022/10/06 01:19:55;;;;;;;3.67;1.23;;;;;;;;;;4924260;29;20051;-87
2022/10/06 01:22:52;;;;;;;1.83;1.10;;;;;;;;;;4922993;29;20028;-87
2022/10/06 01:25:20;;;;;;;6.00;1.20;;;;;;;;;;4921243;29;20048;-88
2022/10/06 01:27:54;;;;;;;2.25;1.10;;;;;;;;;;4906675;29;20037;-87
2022/10/06 01:30:35;;;;;;;2.45;1.08;;;;;;;;;;4921928;29;20065;-87
2022/10/06 01:33:01;;;;;;;3.15;1.00;;;;;;;;;;4922313;29;20505;-88
2022/10/06 01:35:26;;;;;;;1.98;1.23;;;;;;;;;;4906230;29;20036;-87
2022/10/06 01:37:53;;;;;;;3.85;1.15;;;;;;;;;;4922340;29;20047;-88
2022/10/06 01:40:19;;;;;;;2.90;1.10;;;;;;;;;;4922383;29;20035;-87
2022/10/06 01:42:45;;;;;;;4.05;1.60;;;;;;;;;;4923475;29;20110;-86
2022/10/06 01:45:11;;;;;;;2.67;1.00;;;;;;;;;;4922676;29;20048;-88
2022/10/06 01:47:36;;;;;;;2.15;1.08;;;;;;;;;;4922111;29;20032;-88
2022/10/06 01:50:03;;;;;;;3.22;1.00;;;;;;;;;;4920991;29;20036;-88
2022/10/06 01:52:29;;;;;;;1.40;1.10;;;;;;;;;;4921855;29;20564;-87
2022/10/06 01:54:54;;;;;;;2.95;1.00;;;;;;;;;;4921505;29;20032;-86
2022/10/06 01:57:21;;;;;;;2.90;1.20;;;;;;;;;;4922090;29;20040;-87
2022/10/06 01:59:47;;;;;;;1.90;1.10;;;;;;;;;;4905467;29;20508;-88
2022/10/06 02:02:13;;;;;;;2.95;1.05;;;;;;;;;;4921170;29;20035;-88
2022/10/06 02:04:38;;;;;;;2.13;1.30;;;;;;;;;;4921893;29;20036;-86
2022/10/06 02:07:04;;;;;;;4.90;1.27;;;;;;;;;;4920883;29;20131;-87
2022/10/06 02:09:37;;;;;;;2.72;1.05;;;;;;;;;;4920876;29;20039;-87
2022/10/06 02:12:04;;;;;;;1.58;1.08;;;;;;;;;;4920967;29;20040;-88
2022/10/06 02:14:31;;;;;;;2.42;1.10;;;;;;;;;;4921998;29;20040;-88
2022/10/06 02:16:57;;;;;;;4.72;1.20;;;;;;;;;;4920974;29;20559;-88
2022/10/06 02:19:23;;;;;;;1.73;1.10;;;;;;;;;;4920976;29;20044;-87
2022/10/06 02:21:48;;;;;;;4.25;1.20;;;;;;;;;;4903472;29;20033;-87
2022/10/06 02:24:14;;;;;;;1.80;1.10;;;;;;;;;;4901782;29;20540;-87
2022/10/06 02:26:39;;;;;;;1.75;1.00;;;;;;;;;;4885522;29;20037;-87
2022/10/06 02:29:05;;;;;;;1.77;1.10;;;;;;;;;;4885821;29;20040;-87
2022/10/06 02:31:31;;;;;;;1.73;1.10;;;;;;;;;;4901915;29;20036;-87
2022/10/06 02:33:57;;;;;;;1.35;1.00;;;;;;;;;;4901450;29;20052;-86
2022/10/06 02:36:23;;;;;;;3.33;1.27;;;;;;;;;;4901946;29;20569;-87
2022/10/06 02:38:49;;;;;;;1.58;1.02;;;;;;;;;;4902167;29;20064;-88
2022/10/06 02:41:15;;;;;;;3.63;1.30;;;;;;;;;;4886679;29;20067;-88
2022/10/06 02:43:40;;;;;;;2.00;1.00;;;;;;;;;;4902831;29;20111;-87
2022/10/06 02:46:12;;;;;;;2.15;1.10;;;;;;;;;;4902332;29;20517;-88
2022/10/06 02:48:43;;;;;;;2.13;1.15;;;;;;;;;;4901161;29;20037;-87
2022/10/06 02:51:12;;;;;;;1.63;1.00;;;;;;;;;;4901943;29;20040;-87
2022/10/06 02:53:38;;;;;;;2.03;1.13;;;;;;;;;;4901603;29;20092;-87
2022/10/06 02:56:07;;;;;;;5.13;1.23;;;;;;;;;;4901234;29;20068;-87
2022/10/06 02:58:33;;;;;;;3.60;1.55;;;;;;;;;;4901817;29;20494;-87
2022/10/06 03:01:06;;;;;;;2.95;1.10;;;;;;;;;;4886992;29;20394;-87
2022/10/06 03:03:34;;;;;;;1.27;1.00;;;;;;;;;;4901925;29;20043;-88
2022/10/06 03:06:21;;;;;;;5.90;1.40;;;;;;;;;;4904667;29;20450;-86
2022/10/06 03:08:54;;;;;;;2.33;1.20;;;;;;;;;;4891078;29;20060;-86
2022/10/06 03:11:23;;;;;;;2.90;1.23;;;;;;;;;;4904639;29;20029;-85
2022/10/06 03:13:50;;;;;;;4.88;1.58;;;;;;;;;;4905210;29;20061;-86
2022/10/06 03:16:18;;;;;;;6.88;1.50;;;;;;;;;;4904689;29;20088;-85
2022/10/06 03:18:49;;;;;;;1.92;1.30;;;;;;;;;;4905562;29;20525;-86
2022/10/06 03:21:19;;;;;;;2.13;1.30;;;;;;;;;;4890202;29;20040;-86
2022/10/06 03:23:46;;;;;;;2.42;1.20;;;;;;;;;;4906577;29;20047;-86
2022/10/06 03:26:14;;;;;;;1.77;1.30;;;;;;;;;;4904632;29;20040;-86
2022/10/06 03:28:40;;;;;;;2.92;1.30;;;;;;;;;;4904960;29;20430;-86
2022/10/06 03:31:06;;;;;;;4.57;1.20;;;;;;;;;;4905598;29;20017;-86
2022/10/06 03:33:33;;;;;;;3.28;1.20;;;;;;;;;;4905346;29;20493;-86
2022/10/06 03:36:20;;;;;;;3.72;1.40;;;;;;;;;;4904533;29;20057;-85
2022/10/06 03:38:46;;;;;;;2.55;1.10;;;;;;;;;;4905200;29;20040;-86
2022/10/06 03:41:24;;;;;;;2.45;1.15;;;;;;;;;;4906753;29;20033;-86
2022/10/06 03:43:50;;;;;;;3.13;1.40;;;;;;;;;;4909212;29;20092;-85
2022/10/06 03:46:21;;;;;;;3.35;1.50;;;;;;;;;;4910390;29;20092;-86
2022/10/06 03:48:49;;;;;;;2.20;1.50;;;;;;;;;;4893618;29;20119;-86
2022/10/06 03:51:19;;;;;;;2.50;1.23;;;;;;;;;;4908435;29;20056;-86
2022/10/06 03:53:47;;;;;;;1.80;1.20;;;;;;;;;;4908743;29;20036;-86
2022/10/06 03:56:25;;;;;;;2.72;1.35;;;;;;;;;;4909327;29;20037;-86
2022/10/06 03:58:59;;;;;;;3.95;1.45;;;;;;;;;;4893628;29;20036;-87
2022/10/06 04:01:38;;;;;;;3.53;1.15;;;;;;;;;;4908465;29;20040;-86
2022/10/06 04:04:07;;;;;;;2.28;1.33;;;;;;;;;;4892979;29;20040;-86
2022/10/06 04:06:35;;;;;;;2.45;1.23;;;;;;;;;;4908539;29;20043;-86
2022/10/06 04:09:04;;;;;;;4.45;1.50;;;;;;;;;;4892824;29;20056;-86
2022/10/06 04:11:32;;;;;;;3.72;1.73;;;;;;;;;;4907795;29;20108;-86
2022/10/06 04:14:00;;;;;;;4.07;1.40;;;;;;;;;;4907816;29;20043;-85
2022/10/06 04:16:33;;;;;;;1.63;1.30;;;;;;;;;;4908110;29;20028;-86
2022/10/06 04:19:01;;;;;;;4.18;1.40;;;;;;;;;;4908552;29;20036;-86
2022/10/06 04:21:29;;;;;;;3.45;1.20;;;;;;;;;;4908305;29;20060;-85
2022/10/06 04:23:57;;;;;;;4.25;1.80;;;;;;;;;;4907903;29;20041;-85
2022/10/06 04:26:25;;;;;;;3.08;1.60;;;;;;;;;;4908252;29;20036;-86
2022/10/06 04:28:51;;;;;;;4.47;1.85;;;;;;;;;;4908477;29;20028;-86
2022/10/06 04:31:22;;;;;;;3.22;1.90;;;;;;;;;;4908972;29;20032;-87
2022/10/06 04:33:56;;;;;;;6.18;2.20;;;;;;;;;;4908464;29;20041;-86
2022/10/06 04:36:24;;;;;;;2.72;1.90;;;;;;;;;;4892232;29;20044;-86
2022/10/06 04:38:55;;;;;;;4.43;1.90;;;;;;;;;;4907919;29;20043;-86
2022/10/06 04:41:22;;;;;;;3.42;1.90;;;;;;;;;;4907507;29;20124;-86
2022/10/06 04:43:50;;;;;;;3.20;1.48;;;;;;;;;;4907679;29;20070;-86
2022/10/06 04:46:17;;;;;;;6.47;1.60;;;;;;;;;;4907490;29;20044;-86
2022/10/06 04:48:42;;;;;;;4.78;1.50;;;;;;;;;;4907616;29;20048;-86
2022/10/06 04:51:11;;;;;;;5.20;1.52;;;;;;;;;;4908059;29;20055;-86
2022/10/06 04:53:37;;;;;;;1.83;1.30;;;;;;;;;;4907508;29;20045;-86
2022/10/06 04:56:05;;;;;;;2.35;1.20;;;;;;;;;;4907353;29;20458;-86
2022/10/06 04:58:38;;;;;;;3.25;1.48;;;;;;;;;;4908075;29;20040;-86
2022/10/06 05:01:27;;;;;;;2.75;1.50;;;;;;;;;;4907264;29;20405;-86
2022/10/06 05:03:56;;;;;;;2.05;1.50;;;;;;;;;;4907748;29;20060;-87
2022/10/06 05:06:25;;;;;;;2.55;1.48;;;;;;;;;;4908358;29;20060;-86
2022/10/06 05:08:53;;;;;;;3.13;1.50;;;;;;;;;;4908245;29;20037;-86
2022/10/06 05:11:19;;;;;;;4.60;1.40;;;;;;;;;;4908173;29;20115;-85
2022/10/06 05:13:45;;;;;;;1.77;1.30;;;;;;;;;;4908012;29;20028;-86
2022/10/06 05:16:14;;;;;;;4.22;1.60;;;;;;;;;;4907641;29;20036;-86
2022/10/06 05:18:42;;;;;;;2.80;1.45;;;;;;;;;;4907621;29;20506;-86
2022/10/06 05:21:35;;;;;;;1.95;1.35;;;;;;;;;;4907909;29;20020;-86
2022/10/06 05:24:01;;;;;;;2.33;1.30;;;;;;;;;;4919401;29;20112;-86
2022/10/06 05:26:29;;;;;;;3.20;1.45;;;;;;;;;;4907696;29;20047;-86
2022/10/06 05:28:55;;;;;;;2.55;1.52;;;;;;;;;;4907194;29;20044;-86
2022/10/06 05:31:27;;;;;;;4.00;1.48;;;;;;;;;;4907524;29;20056;-86
2022/10/06 05:33:53;;;;;;;2.38;1.50;;;;;;;;;;4906928;29;20078;-86
2022/10/06 05:36:21;;;;;;;6.25;1.80;;;;;;;;;;4906926;29;20036;-86
2022/10/06 05:38:49;;;;;;;2.15;1.33;;;;;;;;;;4891698;29;20044;-86
2022/10/06 05:41:22;;;;;;;1.88;1.40;;;;;;;;;;4907213;29;20033;-86
2022/10/06 05:43:50;;;;;;;4.05;1.77;;;;;;;;;;4907304;29;20136;-86
2022/10/06 05:46:19;;;;;;;3.25;1.20;;;;;;;;;;4906524;29;20501;-86
2022/10/06 05:48:47;;;;;;;2.90;1.40;;;;;;;;;;4907513;29;20029;-86
2022/10/06 05:51:16;;;;;;;2.42;1.30;;;;;;;;;;4907193;29;20078;-86
2022/10/06 05:53:43;;;;;;;7.05;1.60;;;;;;;;;;4891528;29;20040;-86
2022/10/06 05:56:13;;;;;;;3.42;1.10;;;;;;;;;;4906917;29;20533;-87
2022/10/06 05:58:42;;;;;;;2.72;1.33;;;;;;;;;;4906653;29;20036;-86
2022/10/06 06:01:13;;;;;;;2.25;1.15;;;;;;;;;;4907593;29;20045;-87
2022/10/06 06:03:41;;;;;;;3.40;1.30;;;;;;;;;;4906445;29;20398;-86
2022/10/06 06:06:15;;;;;;;5.10;1.30;;;;;;;;;;4906582;29;20056;-86
2022/10/06 06:08:40;;;;;;;2.10;1.20;;;;;;;;;;4907063;29;20041;-86
2022/10/06 06:11:06;;;;;;;2.47;1.05;;;;;;;;;;4906285;29;20054;-87
2022/10/06 06:13:33;;;;;;;3.25;1.20;;;;;;;;;;4907505;29;20054;-86
2022/10/06 06:16:11;;;;;;;2.20;1.30;;;;;;;;;;4908556;29;20081;-86
2022/10/06 06:18:36;;;;;;;3.85;1.15;;;;;;;;;;4907700;29;20052;-86
2022/10/06 06:21:06;;;;;;;2.83;1.30;;;;;;;;;;4907883;29;20077;-86
2022/10/06 06:23:41;;;;;;;5.15;1.40;;;;;;;;;;4907846;29;20047;-85
2022/10/06 06:26:12;;;;;;;4.05;1.27;;;;;;;;;;4906387;29;20041;-86
2022/10/06 06:28:45;;;;;;;1.25;1.15;;;;;;;;;;4906173;29;20103;-84
2022/10/06 06:31:16;;;;;;;3.38;1.25;;;;;;;;;;4908333;29;20037;-82
2022/10/06 06:33:42;;;;;;;1.95;1.30;;;;;;;;;;4908094;29;20063;-85
2022/10/06 06:36:19;;;;;;;2.55;1.30;;;;;;;;;;4906699;29;20036;-87
2022/10/06 06:38:48;;;;;;;3.63;1.20;;;;;;;;;;4903964;29;20036;-86
2022/10/06 06:41:23;;;;;;;3.50;1.52;;;;;;;;;;4907819;29;20037;-85
2022/10/06 06:43:52;;;;;;;4.03;1.45;;;;;;;;;;4908289;29;20033;-84
2022/10/06 06:46:30;;;;;;;3.70;1.95;;;;;;;;;;4906033;29;20043;-87
2022/10/06 06:49:04;;;;;;;2.60;1.90;;;;;;;;;;4905492;29;20039;-87
2022/10/06 06:51:39;;;;;;;3.63;1.90;;;;;;;;;;4904077;29;20071;-87
2022/10/06 06:54:05;;;;;;;3.40;2.22;;;;;;;;;;4905883;29;20043;-87
2022/10/06 06:56:33;;;;;;;6.28;2.10;;;;;;;;;;4905960;29;20037;-87
2022/10/06 06:59:10;;;;;;;3.05;1.50;;;;;;;;;;4906188;29;20123;-87
2022/10/06 07:01:38;;;;;;;2.75;1.50;;;;;;;;;;4907692;29;20037;-86
2022/10/06 07:04:04;;;;;;;2.75;1.50;;;;;;;;;;4906527;29;20114;-86
2022/10/06 07:06:36;;;;;;;3.22;1.30;;;;;;;;;;4904550;29;20033;-86
2022/10/06 07:09:02;;;;;;;4.88;1.40;;;;;;;;;;4904761;29;20061;-86
2022/10/06 07:11:34;;;;;;;2.28;1.63;;;;;;;;;;4905773;29;20057;-86
2022/10/06 07:14:03;;;;;;;5.10;1.50;;;;;;;;;;4905969;29;20046;-86
2022/10/06 07:25:11;;;;;;;2.97;1.40;;;;;;;;;;4910364;29;20048;-85
2022/10/06 07:27:45;;;;;;;2.10;1.15;;;;;;;;;;4905808;29;20068;-86
2022/10/06 07:30:27;;;;;;;2.38;1.20;;;;;;;;;;4906726;29;20056;-87
2022/10/06 07:33:14;;;;;;;2.25;1.45;;;;;;;;;;4906472;29;20438;-84
2022/10/06 07:35:40;;;;;;;3.65;1.80;;;;;;;;;;4903013;29;20096;-87
2022/10/06 07:38:08;;;;;;;2.95;1.40;;;;;;;;;;4898397;29;20473;-87
2022/10/06 07:40:53;;;;;;;4.35;1.80;;;;;;;;;;4902511;29;20052;-85
2022/10/06 07:43:20;;;;;;;3.40;1.80;;;;;;;;;;4902374;29;20048;-85
2022/10/06 07:45:48;;;;;;;4.30;1.60;;;;;;;;;;4903605;29;20029;-86
2022/10/06 07:48:43;;;;;;;4.68;2.20;;;;;;;;;;4905039;29;20076;-85
2022/10/06 07:51:14;;;;;;;5.63;2.40;;;;;;;;;;4901029;29;20069;-86
2022/10/06 07:53:43;;;;;;;6.82;1.85;;;;;;;;;;4899247;29;20033;-85
2022/10/06 07:56:19;;;;;;;4.05;2.65;;;;;;;;;;4902426;29;20123;-86
2022/10/06 07:58:49;;;;;;;3.10;1.80;;;;;;;;;;4902084;29;20028;-85
2022/10/06 08:01:17;;;;;;;2.45;1.70;;;;;;;;;;4905133;29;20037;-85
2022/10/06 08:03:44;;;;;;;6.43;2.05;;;;;;;;;;4903951;29;20097;-85
2022/10/06 08:06:14;;;;;;;4.22;1.40;;;;;;;;;;4901598;29;20045;-86
2022/10/06 08:08:41;;;;;;;5.38;2.10;;;;;;;;;;4901386;29;20081;-87
2022/10/06 08:11:07;;;;;;;2.30;1.80;;;;;;;;;;4902857;29;20401;-86
2022/10/06 08:13:38;;;;;;;5.05;1.50;;;;;;;;;;4900683;29;20061;-86
2022/10/06 08:16:05;;;;;;;4.22;1.40;;;;;;;;;;4898684;29;20131;-86
2022/10/06 08:18:30;;;;;;;2.03;1.30;;;;;;;;;;4900128;29;20029;-86
2022/10/06 08:20:57;;;;;;;3.70;1.58;;;;;;;;;;4899400;29;20100;-86
2022/10/06 08:23:22;;;;;;;2.88;1.50;;;;;;;;;;4899909;29;20044;-87
2022/10/06 08:25:51;;;;;;;5.43;1.50;;;;;;;;;;4899301;29;20135;-85
2022/10/06 08:28:17;;;;;;;3.13;1.50;;;;;;;;;;4901135;29;20068;-86
2022/10/06 08:30:42;;;;;;;2.55;1.30;;;;;;;;;;4902813;29;20051;-86
2022/10/06 08:33:08;;;;;;;2.10;1.20;;;;;;;;;;4901787;29;20033;-87
2022/10/06 08:35:34;;;;;;;6.72;1.30;;;;;;;;;;4902908;29;20096;-87
2022/10/06 08:38:00;;;;;;;6.55;1.60;;;;;;;;;;4903554;29;20036;-86
2022/10/06 08:40:27;;;;;;;2.72;1.25;;;;;;;;;;4902211;29;20173;-87
2022/10/06 08:42:57;;;;;;;3.88;1.30;;;;;;;;;;4900971;29;20051;-87
2022/10/06 08:45:34;;;;;;;2.53;1.33;;;;;;;;;;4902298;29;20486;-87
2022/10/06 08:48:08;;;;;;;3.88;1.48;;;;;;;;;;4904801;29;20040;-87
2022/10/06 08:50:40;;;;;;;1.77;1.20;;;;;;;;;;4906019;29;20048;-86
2022/10/06 08:53:14;;;;;;;2.42;1.40;;;;;;;;;;4905410;29;20044;-89
2022/10/06 08:56:19;;;;;;;3.33;1.27;;;;;;;;;;4903334;29;20056;-87
2022/10/06 08:58:54;;;;;;;;;;;;;;;;;;4904522;29;20099;-86
2022/10/06 09:01:23;;;;;;;2.95;1.58;;;;;;;;;;4903066;29;19922;-86
2022/10/06 09:03:52;;;;;;;2.17;1.48;;;;;;;;;;4903640;29;20040;-87
2022/10/06 09:06:44;;;;;;;8.43;3.45;;;;;;;;;;4901594;29;20097;-87
2022/10/06 09:09:17;;;;;;;5.53;1.40;;;;;;;;;;4903371;29;20036;-87
2022/10/06 09:12:10;;;;;;;3.38;1.20;;;;;;;;;;4902584;29;20109;-87
2022/10/06 09:14:41;;;;;;;4.93;1.40;;;;;;;;;;4902224;29;20513;-88
2022/10/06 09:17:16;;;;;;;3.80;1.20;;;;;;;;;;4902002;29;20036;-86
2022/10/06 09:19:47;;;;;;;2.88;1.30;;;;;;;;;;4901305;29;20044;-87
2022/10/06 09:22:23;;;;;;;2.78;1.60;;;;;;;;;;4902105;29;20032;-86
2022/10/06 09:24:55;;;;;;;2.20;1.30;;;;;;;;;;4902223;29;20586;-87
2022/10/06 09:27:23;;;;;;;4.00;1.20;;;;;;;;;;4901158;29;20040;-88
2022/10/06 09:29:49;;;;;;;2.75;1.17;;;;;;;;;;4900383;29;20045;-88
2022/10/06 09:32:17;;;;;;;2.88;1.27;;;;;;;;;;4898931;29;20537;-88
2022/10/06 09:34:54;;;;;;;3.08;1.27;;;;;;;;;;4899782;29;20128;-88
2022/10/06 09:37:19;;;;;;;3.50;1.30;;;;;;;;;;4902011;29;20044;-87
2022/10/06 09:39:49;;;;;;;2.00;1.35;;;;;;;;;;4905065;29;20087;-87
2022/10/06 09:42:19;;;;;;;3.42;1.50;;;;;;;;;;4904689;29;20095;-87
2022/10/06 09:44:57;;;;;;;3.45;1.30;;;;;;;;;;4903871;29;20119;-88
2022/10/06 09:47:33;;;;;;;3.92;1.50;;;;;;;;;;4905886;29;20043;-88
2022/10/06 09:50:10;;;;;;;4.22;1.40;;;;;;;;;;4905455;29;20055;-87
2022/10/06 09:52:35;;;;;;;5.07;1.40;;;;;;;;;;4904986;29;20108;-87
2022/10/06 09:55:16;;;;;;;3.75;1.50;;;;;;;;;;4904688;29;20473;-88
2022/10/06 09:57:50;;;;;;;2.97;1.38;;;;;;;;;;4905082;29;20044;-87
2022/10/06 10:00:29;;;;;;;1.90;1.20;;;;;;;;;;4905949;29;20059;-87
2022/10/06 10:03:01;;;;;;;2.10;1.50;;;;;;;;;;4906211;29;20052;-87
2022/10/06 10:05:33;;;;;;;2.95;1.42;;;;;;;;;;4906172;29;20083;-87
2022/10/06 10:08:26;;;;;;;2.13;1.30;;;;;;;;;;4905182;29;20039;-88
2022/10/06 10:14:17;;;;;;;3.10;1.40;;;;;;;;;;4915401;29;20140;-88
2022/10/06 10:16:43;;;;;;;2.35;1.40;;;;;;;;;;4906959;29;20092;-86
2022/10/06 10:19:35;;;;;;;5.10;1.60;;;;;;;;;;4908172;29;20482;-87
2022/10/06 10:22:02;;;;;;;3.03;1.52;;;;;;;;;;4909086;29;20036;-88
2022/10/06 10:24:54;;;;;;;3.08;1.50;;;;;;;;;;4907107;29;20040;-88
2022/10/06 10:27:45;;;;;;;2.78;1.60;;;;;;;;;;4907779;29;20037;-87
2022/10/06 10:30:13;;;;;;;2.83;1.63;;;;;;;;;;4882328;29;20048;-87
2022/10/06 10:33:10;;;;;;;4.28;1.50;;;;;;;;;;4904784;29;20470;-87
2022/10/06 10:35:40;;;;;;;2.30;1.40;;;;;;;;;;4903403;29;20048;-87
2022/10/06 10:38:17;;;;;;;2.63;1.40;;;;;;;;;;4903746;29;20063;-87
2022/10/06 10:40:55;;;;;;;4.82;1.55;;;;;;;;;;4905738;29;20043;-87
2022/10/06 10:43:44;;;;;;;3.15;1.60;;;;;;;;;;4904118;29;20462;-87
2022/10/06 10:46:21;;;;;;;4.10;1.50;;;;;;;;;;4903762;29;20055;-87
2022/10/06 10:48:50;;;;;;;3.13;1.33;;;;;;;;;;4904549;29;20032;-87
2022/10/06 10:51:30;;;;;;;5.35;1.60;;;;;;;;;;4909600;29;20043;-87
2022/10/06 10:54:26;;;;;;;4.18;1.75;;;;;;;;;;4906081;29;20115;-86
2022/10/06 10:56:52;;;;;;;3.40;1.70;;;;;;;;;;4907342;29;20044;-88
2022/10/06 10:59:38;;;;;;;5.75;1.73;;;;;;;;;;4903243;29;20028;-87
2022/10/06 11:02:11;;;;;;;4.70;1.55;;;;;;;;;;4904896;29;20074;-88
2022/10/06 11:04:39;;;;;;;;;;;;;;;;;;4907496;29;20111;-87
2022/10/06 11:07:18;;;;;;;8.65;1.77;;;;;;;;;;4910386;29;19919;-88
2022/10/06 11:10:07;;;;;;;4.82;1.80;;;;;;;;;;4909540;29;20040;-88
2022/10/06 11:12:41;;;;;;;6.07;1.70;;;;;;;;;;4914929;29;20044;-88
2022/10/06 11:15:12;;;;;;;3.92;1.70;;;;;;;;;;4894392;29;20069;-87
2022/10/06 11:17:45;;;;;;;6.28;1.80;;;;;;;;;;4909724;29;20048;-88
2022/10/06 11:20:42;;;;;;;4.93;1.90;;;;;;;;;;4909876;29;20040;-88
2022/10/06 11:23:37;;;;;;;5.43;1.73;;;;;;;;;;4909784;29;20033;-88
2022/10/06 11:26:30;;;;;;;7.53;1.52;;;;;;;;;;4894548;29;20047;-88
2022/10/06 11:29:17;;;;;;;3.10;1.60;;;;;;;;;;4910552;29;20048;-87
2022/10/06 11:32:02;;;;;;;4.10;1.70;;;;;;;;;;4903506;29;20119;-87
2022/10/06 11:34:27;;;;;;;3.55;1.67;;;;;;;;;;4887698;29;20044;-87
2022/10/06 11:37:23;;;;;;;4.22;1.80;;;;;;;;;;4901935;29;20375;-85
2022/10/06 11:40:10;;;;;;;3.40;1.67;;;;;;;;;;4901709;29;20042;-87
2022/10/06 11:42:46;;;;;;;10.60;1.80;;;;;;;;;;4900982;29;20533;-87
2022/10/06 11:45:15;;;;;;;4.32;1.90;;;;;;;;;;4899733;29;20045;-86
2022/10/06 11:48:21;;;;;;;9.45;1.80;;;;;;;;;;4900183;29;20036;-87
2022/10/06 11:50:50;;;;;;;7.13;1.98;;;;;;;;;;4901385;29;20036;-90
2022/10/06 11:53:31;;;;;;;3.13;1.98;;;;;;;;;;4903577;29;20032;-87
2022/10/06 11:56:15;;;;;;;3.85;1.70;;;;;;;;;;4902986;29;20073;-87
2022/10/06 11:58:50;;;;;;;6.25;1.73;;;;;;;;;;4904463;29;20040;-86
2022/10/06 12:01:31;;;;;;;3.60;1.75;;;;;;;;;;4904735;29;20071;-87
2022/10/06 12:04:09;;;;;;;3.78;1.60;;;;;;;;;;4904291;29;20414;-87
2022/10/06 12:06:40;;;;;;;3.53;1.70;;;;;;;;;;4906361;29;20036;-87
2022/10/06 12:09:24;;;;;;;3.28;1.83;;;;;;;;;;4906662;29;20059;-87
2022/10/06 12:12:18;;;;;;;4.40;1.90;;;;;;;;;;4908722;29;20124;-87
2022/10/06 12:15:11;;;;;;;3.80;1.70;;;;;;;;;;4911443;29;20041;-88
2022/10/06 12:18:02;;;;;;;3.15;1.70;;;;;;;;;;4912645;29;20078;-88
2022/10/06 12:20:45;;;;;;;2.78;1.80;;;;;;;;;;4913816;29;20040;-88
2022/10/06 12:23:55;;;;;;;5.97;2.17;;;;;;;;;;4913578;29;20032;-89
2022/10/06 12:26:25;;;;;;;5.90;1.70;;;;;;;;;;4908888;29;20047;-88
2022/10/06 12:29:15;;;;;;;10.23;2.10;;;;;;;;;;4913434;29;20055;-88
2022/10/06 12:31:56;;;;;;;3.63;1.52;;;;;;;;;;4911368;29;20044;-88
2022/10/06 12:34:57;;;;;;;10.80;1.73;;;;;;;;;;4912319;29;20519;-88
2022/10/06 12:37:45;;;;;;;5.43;1.50;;;;;;;;;;4912713;29;20040;-87
2022/10/06 12:40:46;;;;;;;6.60;2.00;;;;;;;;;;4913926;29;20043;-88
2022/10/06 12:43:18;;;;;;;4.53;1.70;;;;;;;;;;4911974;29;20037;-87
2022/10/06 12:45:52;;;;;;;6.25;1.42;;;;;;;;;;4909038;29;20048;-85
2022/10/06 12:48:24;;;;;;;5.07;1.95;;;;;;;;;;4908238;29;20040;-85
2022/10/06 12:51:21;;;;;;;3.60;1.70;;;;;;;;;;4906332;29;20127;-86
2022/10/06 12:53:56;;;;;;;4.65;1.75;;;;;;;;;;4923119;29;20064;-86
2022/10/06 12:56:34;;;;;;;4.15;1.50;;;;;;;;;;4906628;29;20046;-88
2022/10/06 12:59:22;;;;;;;6.82;1.50;;;;;;;;;;4905904;29;20043;-87
2022/10/06 13:01:50;;;;;;;6.97;1.52;;;;;;;;;;4904662;29;20040;-85
2022/10/06 13:04:28;;;;;;;6.88;1.33;;;;;;;;;;4905398;29;20115;-86
2022/10/06 13:06:54;;;;;;;4.55;1.52;;;;;;;;;;4904921;29;20422;-86
2022/10/06 13:09:20;;;;;;;7.60;1.70;;;;;;;;;;4904237;29;20032;-86
2022/10/06 13:11:48;;;;;;;5.30;1.95;;;;;;;;;;4905318;29;20482;-86
2022/10/06 13:14:14;;;;;;;4.75;1.48;;;;;;;;;;4905587;29;20079;-86
2022/10/06 13:16:43;;;;;;;8.05;1.60;;;;;;;;;;4903000;29;20103;-86
2022/10/06 13:19:24;;;;;;;2.97;1.70;;;;;;;;;;4900995;29;20115;-86
2022/10/06 13:21:49;;;;;;;5.40;1.80;;;;;;;;;;4902135;29;20161;-86
2022/10/06 13:24:20;;;;;;;5.97;1.63;;;;;;;;;;4901302;29;20060;-85
2022/10/06 13:26:47;;;;;;;5.50;2.03;;;;;;;;;;4902394;29;20107;-86
2022/10/06 13:29:24;;;;;;;6.45;2.35;;;;;;;;;;4902311;29;20040;-87
2022/10/06 13:32:03;;;;;;;4.00;2.03;;;;;;;;;;4906634;29;20038;-86
2022/10/06 13:34:33;;;;;;;9.75;2.20;;;;;;;;;;4910633;29;20076;-84
2022/10/06 13:37:00;;;;;;;6.03;2.10;;;;;;;;;;4906122;29;20060;-85
2022/10/06 13:39:30;;;;;;;6.25;2.28;;;;;;;;;;4905095;29;20041;-87
2022/10/06 13:41:59;;;;;;;6.72;2.10;;;;;;;;;;4903201;29;20032;-86
2022/10/06 13:44:38;;;;;;;9.55;2.30;;;;;;;;;;4904322;29;20032;-87
2022/10/06 13:47:16;;;;;;;4.47;2.10;;;;;;;;;;4904415;29;20406;-87
2022/10/06 13:49:47;;;;;;;6.00;2.20;;;;;;;;;;4904019;29;20040;-87
2022/10/06 13:52:42;;;;;;;9.95;2.45;;;;;;;;;;4903989;29;20105;-87
2022/10/06 13:55:20;;;;;;;4.28;1.90;;;;;;;;;;4903134;29;20497;-86
2022/10/06 13:57:55;;;;;;;9.18;2.30;;;;;;;;;;4903278;29;20071;-86
2022/10/06 14:00:23;;;;;;;7.47;2.30;;;;;;;;;;4902275;29;20491;-86
2022/10/06 14:03:10;;;;;;;4.28;1.98;;;;;;;;;;4904677;29;20092;-86
2022/10/06 14:05:44;;;;;;;8.10;2.30;;;;;;;;;;4917397;29;20399;-86
2022/10/06 14:08:10;;;;;;;3.38;2.10;;;;;;;;;;4902805;29;20504;-87
2022/10/06 14:10:35;;;;;;;6.15;2.45;;;;;;;;;;4903740;29;20024;-87
2022/10/06 14:13:15;;;;;;;3.72;1.90;;;;;;;;;;4902023;29;20036;-85
2022/10/06 14:15:50;;;;;;;8.15;2.42;;;;;;;;;;4902419;29;20139;-86
2022/10/06 14:18:20;;;;;;;6.60;2.30;;;;;;;;;;4902099;29;20051;-86
2022/10/06 14:20:48;;;;;;;4.70;2.10;;;;;;;;;;4903378;29;20045;-86
2022/10/06 14:23:48;;;;;;;6.35;2.13;;;;;;;;;;4904323;29;20157;-86
2022/10/06 14:26:15;;;;;;;5.28;2.10;;;;;;;;;;4903245;29;20715;-87
2022/10/06 14:28:51;;;;;;;5.50;2.00;;;;;;;;;;4900466;29;20092;-86
2022/10/06 14:31:17;;;;;;;4.75;1.98;;;;;;;;;;4896141;29;20052;-87
2022/10/06 14:33:45;;;;;;;4.63;2.20;;;;;;;;;;4889116;29;20502;-88
2022/10/06 14:36:15;;;;;;;6.55;1.92;;;;;;;;;;4868702;29;20096;-89
2022/10/06 14:38:40;;;;;;;7.10;2.15;;;;;;;;;;4869973;29;20383;-87
2022/10/06 14:41:06;;;;;;;3.25;2.03;;;;;;;;;;4886042;29;20558;-87
2022/10/06 14:43:31;;;;;;;4.85;2.20;;;;;;;;;;4885106;29;20037;-88
2022/10/06 14:45:59;;;;;;;6.30;1.88;;;;;;;;;;4882909;29;20029;-88
2022/10/06 14:48:27;;;;;;;4.68;2.20;;;;;;;;;;4882133;29;20037;-88
2022/10/06 14:50:52;;;;;;;6.63;2.00;;;;;;;;;;4883732;29;20096;-86
2022/10/06 14:53:18;;;;;;;4.38;2.03;;;;;;;;;;4883588;29;20029;-88
2022/10/06 14:55:44;;;;;;;5.85;2.30;;;;;;;;;;4883131;29;20177;-87
2022/10/06 14:58:10;;;;;;;5.53;2.17;;;;;;;;;;4884018;29;20036;-86
2022/10/06 15:00:38;;;;;;;3.90;2.10;;;;;;;;;;4883938;29;20032;-87
2022/10/06 15:03:03;;;;;;;2.83;2.05;;;;;;;;;;4885612;29;20036;-86
2022/10/06 15:05:29;;;;;;;6.97;2.20;;;;;;;;;;4885353;29;20528;-87
2022/10/06 15:08:10;;;;;;;5.55;2.15;;;;;;;;;;4885716;29;20048;-87
2022/10/06 15:10:37;;;;;;;5.88;2.15;;;;;;;;;;4885885;29;20041;-87
2022/10/06 15:13:08;;;;;;;6.32;2.42;;;;;;;;;;4884973;29;20036;-87
2022/10/06 15:15:33;;;;;;;7.32;2.30;;;;;;;;;;4885027;29;20044;-86
2022/10/06 15:18:01;;;;;;;7.20;2.30;;;;;;;;;;4885791;29;20398;-88
2022/10/06 15:20:28;;;;;;;4.78;2.13;;;;;;;;;;4884745;29;20052;-87
2022/10/06 15:22:54;;;;;;;9.15;2.40;;;;;;;;;;4885123;29;20033;-88
2022/10/06 15:30:48;;;;;;;6.50;2.45;;;;;;;;;;4883605;29;20120;-87
2022/10/06 15:33:13;;;;;;;5.38;2.40;;;;;;;;;;4884117;29;20037;-87